Maersk Nimes — VRFO7 — position and weather

sailwx.info

Track history (hours):
 
Tides and Currents Weather Stations Pressure Air Temp Water Temp Dewpoint Dewpoint Depression Visibility Wind Speed Wind Dir Waves Ship Positions

Maersk Nimes

Last reported at 2015-May-05 08:32 UTC. Time now 2015-May-05 09:12 UTC.
Position N 53°35' E 008°31'.

Length 210 m; draft 10.2 m.

Type: Cargo ship. MMSI: 477559200.

Date/timePositionNaut miles runAvg speedWind from/ knotsBaromVisibWave heightAir tempDewpointWater temp
2015-May-05 08:32N 53°35' E 008°31'0 0.0
2015-May-05 07:32N 53°35' E 008°31'0 0.0
2015-May-05 06:32N 53°35' E 008°31'0 0.0
2015-May-05 05:32N 53°35' E 008°31'0 0.0
2015-May-05 04:32N 53°35' E 008°31'0 0.0
2015-May-05 03:32N 53°35' E 008°31'0 0.0
2015-May-05 02:32N 53°35' E 008°31'0 0.0
2015-May-05 01:32N 53°35' E 008°31'0 0.0
2015-May-05 00:32N 53°35' E 008°31'0 0.0
2015-May-04 23:32N 53°35' E 008°31'0 0.0
2015-May-04 22:32N 53°35' E 008°31'0 0.0
2015-May-04 21:32N 53°35' E 008°31'0 0.0
2015-May-04 20:32N 53°35' E 008°31'0 0.0
2015-May-04 19:33N 53°35' E 008°31'6 5.8
2015-May-04 18:33N 53°39' E 008°24'1616.5
2015-May-04 17:33N 53°50' E 008°03'9 8.2
2015-May-04 16:30N 53°55' E 007°51'0 0.0
2015-May-04 15:33N 53°55' E 007°51'0 0.0
2015-May-04 14:33N 53°55' E 007°51'0 0.1
2015-May-04 13:33N 53°55' E 007°51'0 0.1
2015-May-04 12:33N 53°55' E 007°51'0 0.0
2015-May-04 11:33N 53°55' E 007°52'0 0.0
2015-May-04 10:27N 53°55' E 007°52'0 0.0
2015-May-04 09:24N 53°55' E 007°52'0 0.0
2015-May-04 08:33N 53°55' E 007°52'8 8.1
2015-May-04 07:33N 54°00' E 008°01'1413.6
2015-May-04 06:33N 53°59' E 008°25'1514.6
2015-May-04 05:33N 53°51' E 008°45'1514.9
2015-May-04 04:33N 53°53' E 009°10'1212.1
2015-May-04 03:34N 53°45' E 009°25'1010.3
2015-May-04 02:33N 53°36' E 009°35'8 8.2
2015-May-04 01:34N 53°33' E 009°48'7 6.8
2015-May-04 00:33N 53°32' E 009°60'0 0.1
2015-May-03 23:25N 53°32' E 009°60'0 0.0
2015-May-03 22:31N 53°32' E 009°60'0 0.0
2015-May-03 21:31N 53°32' E 009°60'0 0.0
2015-May-03 20:31N 53°32' E 009°60'0 0.0
2015-May-03 19:31N 53°32' E 009°60'0 0.0
2015-May-03 18:31N 53°32' E 009°60'0 0.0
2015-May-03 17:28N 53°32' E 009°60'0 0.0
2015-May-03 16:31N 53°32' E 009°60'0 0.0
2015-May-03 15:31N 53°32' E 009°60'0 0.0
2015-May-03 14:28N 53°32' E 009°60'0 0.0
2015-May-03 13:33N 53°32' E 009°60'6 5.9
2015-May-03 12:34N 53°33' E 009°50'1211.5
2015-May-03 11:33N 53°38' E 009°32'1212.5
2015-May-03 10:34N 53°49' E 009°22'1111.5
2015-May-03 09:34N 53°52' E 009°04'1313.2
2015-May-03 08:33N 53°54' E 008°42'1515.2
2015-May-03 07:33N 53°60' E 008°18'10 9.6
2015-May-03 06:33N 53°59' E 008°02'1 0.7
2015-May-03 05:33N 53°59' E 008°01'1211.5
2015-May-03 04:33N 53°56' E 007°42'1312.9
2015-May-03 03:33N 53°53' E 007°21'1312.5
2015-May-03 02:32N 53°50' E 007°00'1512.3
2015-May-03 01:21N 53°47' E 006°36'1112.2
2015-May-03 00:24N 53°44' E 006°17'1012.0
2015-May-02 23:33N 53°41' E 006°01'1211.9
2015-May-02 22:33N 53°37' E 005°42'1212.2
2015-May-02 21:33N 53°33' E 005°22'1212.3
2015-May-02 20:33N 53°29' E 005°03'1212.4
2015-May-02 19:33N 53°24' E 004°43'1212.3
2015-May-02 18:33N 53°14' E 004°33'1212.1
2015-May-02 17:33N 53°03' E 004°23'1212.5
2015-May-02 16:33N 52°52' E 004°15'1212.3
2015-May-02 15:33N 52°41' E 004°04'1212.0
2015-May-02 14:33N 52°31' E 003°54'1312.4
2015-May-02 13:30N 52°18' E 003°52'1212.6
2015-May-02 12:33N 52°06' E 003°55'10 9.9
2015-May-02 11:34N 51°59' E 004°06'9 8.9
2015-May-02 10:33N 51°54' E 004°18'5 5.1
2015-May-02 09:34N 51°54' E 004°26'0 0.3
2015-May-02 08:33N 51°53' E 004°26'0 0.0
2015-May-02 07:33N 51°53' E 004°26'0 0.0
2015-May-02 06:32N 51°53' E 004°26'0 0.0
2015-May-02 05:33N 51°53' E 004°26'0 0.0
2015-May-02 04:32N 51°53' E 004°26'0 0.0
2015-May-02 03:32N 51°53' E 004°26'0 0.0
2015-May-02 02:33N 51°53' E 004°26'0 0.0
2015-May-02 01:31N 51°53' E 004°26'0 0.0
2015-May-02 00:32N 51°53' E 004°26'0 0.0
2015-May-01 23:32N 51°53' E 004°26'0 0.0
2015-May-01 22:31N 51°53' E 004°26'0 0.0
2015-May-01 21:31N 51°53' E 004°26'1 0.9
2015-May-01 20:33N 51°54' E 004°25'7 7.1
2015-May-01 19:33N 51°56' E 004°14'1010.0
2015-May-01 18:33N 51°60' E 003°59'9 9.3
2015-May-01 17:33N 51°59' E 003°44'5 4.2
2015-May-01 16:17N 51°56' E 003°37'0 0.1
2015-May-01 15:20N 51°56' E 003°37'0 0.2
2015-May-01 14:20N 51°56' E 003°37'0 0.0
2015-May-01 13:32N 51°56' E 003°37'0 0.1
2015-May-01 11:23N 51°56' E 003°37'0 0.1
2015-May-01 09:21N 51°56' E 003°37'2 2.5
2015-May-01 08:33N 51°58' E 003°38'1212.3
2015-May-01 07:33N 51°55' E 003°19'3315.1
2015-May-01 05:22N 51°41' E 002°30'1215.3
2015-May-01 04:34N 51°32' E 002°18'1414.1
2015-May-01 03:34N 51°19' E 002°07'1414.0
2015-May-01 02:33N 51°10' E 001°51'1514.8
2015-May-01 01:34N 50°59' E 001°34'1614.9
2015-May-01 00:30N 50°45' E 001°25'1515.2
2015-Apr-30 23:33N 50°35' E 001°08'1515.1
2015-Apr-30 22:33N 50°28' E 000°47'1615.8
2015-Apr-30 21:33N 50°24' E 000°24'1815.8
2015-Apr-30 20:24N 50°19' W 000°04'2015.2
2015-Apr-30 19:06N 50°14' W 000°34'2515.8
2015-Apr-30 17:33N 50°08' W 001°11'1717.2
2015-Apr-30 16:33N 50°03' W 001°36'  
2015-Apr-28 00:00N 39°18' W 025°24'5220.8 240 / 111020.0 5.4 1.522.022.0
2015-Apr-27 21:30N 38°45' W 026°15'1920.6
2015-Apr-27 20:33N 38°32' W 026°33'2020.4
2015-Apr-27 19:33N 38°19' W 026°54'2120.8
2015-Apr-27 18:34N 38°13' W 027°19'2120.7
2015-Apr-27 17:33N 38°07' W 027°44'2120.6
2015-Apr-27 16:33N 38°01' W 028°09'2120.7
2015-Apr-27 15:33N 37°54' W 028°34'2120.7
2015-Apr-27 14:33N 37°48' W 028°59'2120.5
2015-Apr-27 13:33N 37°41' W 029°24'2020.5
2015-Apr-27 12:34N 37°35' W 029°48'1118.6
2015-Apr-27 12:00N 37°30' W 030°00'1024.0 210 / 91019.3 5.4 1.019.019.0
2015-Apr-27 11:33N 37°28' W 030°13'2120.7
2015-Apr-27 10:33N 37°21' W 030°37'2220.7
2015-Apr-27 09:30N 37°13' W 031°03'1920.5
2015-Apr-27 08:33N 37°08' W 031°26'2120.7
2015-Apr-27 07:33N 37°01' W 031°51'77920.7
2015-Apr-25 18:00N 31°42' W 046°12'   220 / 211011.010.8 1.024.022.528.0
Track history (hours):
 
Tides and Currents Weather Stations Pressure Air Temp Water Temp Dewpoint Dewpoint Depression Visibility Wind Speed Wind Dir Waves Ship Positions

Maersk Nimes

Last reported at 2015-May-05 08:32 UTC. Time now 2015-May-05 09:12 UTC.
Position N 53°35' E 008°31'.

Length 210 m; draft 10.2 m.

Type: Cargo ship. MMSI: 477559200.

Date/timePositionNaut miles runAvg speedWind from/ knotsBaromVisibWave heightAir tempDewpointWater temp
2015-May-05 08:32N 53°35' E 008°31'0 0.0
2015-May-05 07:32N 53°35' E 008°31'0 0.0
2015-May-05 06:32N 53°35' E 008°31'0 0.0
2015-May-05 05:32N 53°35' E 008°31'0 0.0
2015-May-05 04:32N 53°35' E 008°31'0 0.0
2015-May-05 03:32N 53°35' E 008°31'0 0.0
2015-May-05 02:32N 53°35' E 008°31'0 0.0
2015-May-05 01:32N 53°35' E 008°31'0 0.0
2015-May-05 00:32N 53°35' E 008°31'0 0.0
2015-May-04 23:32N 53°35' E 008°31'0 0.0
2015-May-04 22:32N 53°35' E 008°31'0 0.0
2015-May-04 21:32N 53°35' E 008°31'0 0.0
2015-May-04 20:32N 53°35' E 008°31'0 0.0
2015-May-04 19:33N 53°35' E 008°31'6 5.8
2015-May-04 18:33N 53°39' E 008°24'1616.5
2015-May-04 17:33N 53°50' E 008°03'9 8.2
2015-May-04 16:30N 53°55' E 007°51'0 0.0
2015-May-04 15:33N 53°55' E 007°51'0 0.0
2015-May-04 14:33N 53°55' E 007°51'0 0.1
2015-May-04 13:33N 53°55' E 007°51'0 0.1
2015-May-04 12:33N 53°55' E 007°51'0 0.0
2015-May-04 11:33N 53°55' E 007°52'0 0.0
2015-May-04 10:27N 53°55' E 007°52'0 0.0
2015-May-04 09:24N 53°55' E 007°52'0 0.0
2015-May-04 08:33N 53°55' E 007°52'8 8.1
2015-May-04 07:33N 54°00' E 008°01'1413.6
2015-May-04 06:33N 53°59' E 008°25'1514.6
2015-May-04 05:33N 53°51' E 008°45'1514.9
2015-May-04 04:33N 53°53' E 009°10'1212.1
2015-May-04 03:34N 53°45' E 009°25'1010.3
2015-May-04 02:33N 53°36' E 009°35'8 8.2
2015-May-04 01:34N 53°33' E 009°48'7 6.8
2015-May-04 00:33N 53°32' E 009°60'0 0.1
2015-May-03 23:25N 53°32' E 009°60'0 0.0
2015-May-03 22:31N 53°32' E 009°60'0 0.0
2015-May-03 21:31N 53°32' E 009°60'0 0.0
2015-May-03 20:31N 53°32' E 009°60'0 0.0
2015-May-03 19:31N 53°32' E 009°60'0 0.0
2015-May-03 18:31N 53°32' E 009°60'0 0.0
2015-May-03 17:28N 53°32' E 009°60'0 0.0
2015-May-03 16:31N 53°32' E 009°60'0 0.0
2015-May-03 15:31N 53°32' E 009°60'0 0.0
2015-May-03 14:28N 53°32' E 009°60'0 0.0
2015-May-03 13:33N 53°32' E 009°60'6 5.9
2015-May-03 12:34N 53°33' E 009°50'1211.5
2015-May-03 11:33N 53°38' E 009°32'1212.5
2015-May-03 10:34N 53°49' E 009°22'1111.5
2015-May-03 09:34N 53°52' E 009°04'1313.2
2015-May-03 08:33N 53°54' E 008°42'1515.2
2015-May-03 07:33N 53°60' E 008°18'10 9.6
2015-May-03 06:33N 53°59' E 008°02'1 0.7
2015-May-03 05:33N 53°59' E 008°01'1211.5
2015-May-03 04:33N 53°56' E 007°42'1312.9
2015-May-03 03:33N 53°53' E 007°21'1312.5
2015-May-03 02:32N 53°50' E 007°00'1512.3
2015-May-03 01:21N 53°47' E 006°36'1112.2
2015-May-03 00:24N 53°44' E 006°17'1012.0
2015-May-02 23:33N 53°41' E 006°01'1211.9
2015-May-02 22:33N 53°37' E 005°42'1212.2
2015-May-02 21:33N 53°33' E 005°22'1212.3
2015-May-02 20:33N 53°29' E 005°03'1212.4
2015-May-02 19:33N 53°24' E 004°43'1212.3
2015-May-02 18:33N 53°14' E 004°33'1212.1
2015-May-02 17:33N 53°03' E 004°23'1212.5
2015-May-02 16:33N 52°52' E 004°15'1212.3
2015-May-02 15:33N 52°41' E 004°04'1212.0
2015-May-02 14:33N 52°31' E 003°54'1312.4
2015-May-02 13:30N 52°18' E 003°52'1212.6
2015-May-02 12:33N 52°06' E 003°55'10 9.9
2015-May-02 11:34N 51°59' E 004°06'9 8.9
2015-May-02 10:33N 51°54' E 004°18'5 5.1
2015-May-02 09:34N 51°54' E 004°26'0 0.3
2015-May-02 08:33N 51°53' E 004°26'0 0.0
2015-May-02 07:33N 51°53' E 004°26'0 0.0
2015-May-02 06:32N 51°53' E 004°26'0 0.0
2015-May-02 05:33N 51°53' E 004°26'0 0.0
2015-May-02 04:32N 51°53' E 004°26'0 0.0
2015-May-02 03:32N 51°53' E 004°26'0 0.0
2015-May-02 02:33N 51°53' E 004°26'0 0.0
2015-May-02 01:31N 51°53' E 004°26'0 0.0
2015-May-02 00:32N 51°53' E 004°26'0 0.0
2015-May-01 23:32N 51°53' E 004°26'0 0.0
2015-May-01 22:31N 51°53' E 004°26'0 0.0
2015-May-01 21:31N 51°53' E 004°26'1 0.9
2015-May-01 20:33N 51°54' E 004°25'7 7.1
2015-May-01 19:33N 51°56' E 004°14'1010.0
2015-May-01 18:33N 51°60' E 003°59'9 9.3
2015-May-01 17:33N 51°59' E 003°44'5 4.2
2015-May-01 16:17N 51°56' E 003°37'0 0.1
2015-May-01 15:20N 51°56' E 003°37'0 0.2
2015-May-01 14:20N 51°56' E 003°37'0 0.0
2015-May-01 13:32N 51°56' E 003°37'0 0.1
2015-May-01 11:23N 51°56' E 003°37'0 0.1
2015-May-01 09:21N 51°56' E 003°37'2 2.5
2015-May-01 08:33N 51°58' E 003°38'1212.3
2015-May-01 07:33N 51°55' E 003°19'3315.1
2015-May-01 05:22N 51°41' E 002°30'1215.3
2015-May-01 04:34N 51°32' E 002°18'1414.1
2015-May-01 03:34N 51°19' E 002°07'1414.0
2015-May-01 02:33N 51°10' E 001°51'1514.8
2015-May-01 01:34N 50°59' E 001°34'1614.9
2015-May-01 00:30N 50°45' E 001°25'1515.2
2015-Apr-30 23:33N 50°35' E 001°08'1515.1
2015-Apr-30 22:33N 50°28' E 000°47'1615.8
2015-Apr-30 21:33N 50°24' E 000°24'1815.8
2015-Apr-30 20:24N 50°19' W 000°04'2015.2
2015-Apr-30 19:06N 50°14' W 000°34'2515.8
2015-Apr-30 17:33N 50°08' W 001°11'1717.2
2015-Apr-30 16:33N 50°03' W 001°36'  
2015-Apr-28 00:00N 39°18' W 025°24'5220.8 240 / 111020.0 5.4 1.522.022.0
2015-Apr-27 21:30N 38°45' W 026°15'1920.6
2015-Apr-27 20:33N 38°32' W 026°33'2020.4
2015-Apr-27 19:33N 38°19' W 026°54'2120.8
2015-Apr-27 18:34N 38°13' W 027°19'2120.7
2015-Apr-27 17:33N 38°07' W 027°44'2120.6
2015-Apr-27 16:33N 38°01' W 028°09'2120.7
2015-Apr-27 15:33N 37°54' W 028°34'2120.7
2015-Apr-27 14:33N 37°48' W 028°59'2120.5
2015-Apr-27 13:33N 37°41' W 029°24'2020.5
2015-Apr-27 12:34N 37°35' W 029°48'1118.6
2015-Apr-27 12:00N 37°30' W 030°00'1024.0 210 / 91019.3 5.4 1.019.019.0
2015-Apr-27 11:33N 37°28' W 030°13'2120.7
2015-Apr-27 10:33N 37°21' W 030°37'2220.7
2015-Apr-27 09:30N 37°13' W 031°03'1920.5
2015-Apr-27 08:33N 37°08' W 031°26'2120.7
2015-Apr-27 07:33N 37°01' W 031°51'77920.7
2015-Apr-25 18:00N 31°42' W 046°12'   220 / 211011.010.8 1.024.022.528.0

Dump ship's entire track history